sensor_id;sensor_type;location;lat;lon;timestamp;pressure;altitude;pressure_sealevel;temperature;humidity
22550;BME280;11441;57.164;-2.120;2023-06-24T00:01:04;101076.38;;;16.88;100.00
22550;BME280;11441;57.164;-2.120;2023-06-24T00:03:31;101081.56;;;16.93;100.00
22550;BME280;11441;57.164;-2.120;2023-06-24T00:05:58;101078.41;;;16.98;100.00
22550;BME280;11441;57.164;-2.120;2023-06-24T00:08:30;101066.88;;;17.00;100.00
22550;BME280;11441;57.164;-2.120;2023-06-24T00:11:01;101075.19;;;16.96;100.00
22550;BME280;11441;57.164;-2.120;2023-06-24T00:13:29;101076.78;;;16.90;100.00
22550;BME280;11441;57.164;-2.120;2023-06-24T00:15:56;101075.19;;;16.92;100.00
22550;BME280;11441;57.164;-2.120;2023-06-24T00:18:23;101070.09;;;17.02;100.00
22550;BME280;11441;57.164;-2.120;2023-06-24T00:20:51;101060.88;;;16.94;100.00
22550;BME280;11441;57.164;-2.120;2023-06-24T00:23:21;101062.88;;;16.90;100.00
22550;BME280;11441;57.164;-2.120;2023-06-24T00:25:52;101067.31;;;17.02;100.00
22550;BME280;11441;57.164;-2.120;2023-06-24T00:28:19;101066.84;;;16.96;100.00
22550;BME280;11441;57.164;-2.120;2023-06-24T00:30:49;101062.84;;;16.86;100.00
22550;BME280;11441;57.164;-2.120;2023-06-24T00:33:16;101061.25;;;16.85;100.00
22550;BME280;11441;57.164;-2.120;2023-06-24T00:35:46;101052.13;;;16.85;100.00
22550;BME280;11441;57.164;-2.120;2023-06-24T00:38:14;101071.66;;;16.99;100.00
22550;BME280;11441;57.164;-2.120;2023-06-24T00:40:41;101058.09;;;16.94;100.00
22550;BME280;11441;57.164;-2.120;2023-06-24T00:43:08;101069.59;;;16.89;100.00
22550;BME280;11441;57.164;-2.120;2023-06-24T00:45:36;101060.47;;;16.85;100.00
22550;BME280;11441;57.164;-2.120;2023-06-24T00:48:03;101064.03;;;16.85;100.00
22550;BME280;11441;57.164;-2.120;2023-06-24T00:50:32;101063.56;;;16.80;100.00
22550;BME280;11441;57.164;-2.120;2023-06-24T00:52:58;101058.50;;;16.92;100.00
22550;BME280;11441;57.164;-2.120;2023-06-24T00:55:25;101067.66;;;16.93;100.00
22550;BME280;11441;57.164;-2.120;2023-06-24T00:58:14;101069.22;;;16.94;100.00
22550;BME280;11441;57.164;-2.120;2023-06-24T01:01:01;101049.00;;;17.04;100.00
22550;BME280;11441;57.164;-2.120;2023-06-24T01:03:30;101067.69;;;17.00;100.00
22550;BME280;11441;57.164;-2.120;2023-06-24T01:05:57;101055.34;;;17.01;100.00
22550;BME280;11441;57.164;-2.120;2023-06-24T01:08:24;101068.50;;;17.04;100.00
22550;BME280;11441;57.164;-2.120;2023-06-24T01:10:52;101069.66;;;17.03;100.00
22550;BME280;11441;57.164;-2.120;2023-06-24T01:13:18;101067.66;;;16.93;100.00
22550;BME280;11441;57.164;-2.120;2023-06-24T01:16:10;101062.47;;;16.88;100.00
22550;BME280;11441;57.164;-2.120;2023-06-24T01:19:04;101065.16;;;16.81;100.00
22550;BME280;11441;57.164;-2.120;2023-06-24T01:25:01;101067.91;;;16.77;100.00
22550;BME280;11441;57.164;-2.120;2023-06-24T01:33:10;101067.13;;;16.76;100.00
22550;BME280;11441;57.164;-2.120;2023-06-24T01:35:40;101067.91;;;16.73;100.00
22550;BME280;11441;57.164;-2.120;2023-06-24T01:38:11;101066.75;;;16.78;100.00
22550;BME280;11441;57.164;-2.120;2023-06-24T01:40:44;101064.38;;;16.80;100.00
22550;BME280;11441;57.164;-2.120;2023-06-24T01:43:53;101056.38;;;16.75;100.00
22550;BME280;11441;57.164;-2.120;2023-06-24T01:46:22;101060.47;;;16.85;100.00
22550;BME280;11441;57.164;-2.120;2023-06-24T01:48:53;101058.13;;;17.01;100.00
22550;BME280;11441;57.164;-2.120;2023-06-24T01:51:22;101048.22;;;17.00;100.00
22550;BME280;11441;57.164;-2.120;2023-06-24T01:53:56;101045.41;;;16.93;100.00
22550;BME280;11441;57.164;-2.120;2023-06-24T01:56:25;101046.19;;;16.90;100.00
22550;BME280;11441;57.164;-2.120;2023-06-24T01:58:57;101048.13;;;16.89;100.00
22550;BME280;11441;57.164;-2.120;2023-06-24T02:01:26;101052.16;;;16.92;100.00
22550;BME280;11441;57.164;-2.120;2023-06-24T02:03:54;101050.13;;;16.85;100.00
22550;BME280;11441;57.164;-2.120;2023-06-24T02:06:24;101048.56;;;16.91;100.00
22550;BME280;11441;57.164;-2.120;2023-06-24T02:08:53;101041.00;;;16.92;100.00
22550;BME280;11441;57.164;-2.120;2023-06-24T02:11:23;101039.88;;;17.04;100.00
22550;BME280;11441;57.164;-2.120;2023-06-24T02:13:51;101034.31;;;17.04;100.00
22550;BME280;11441;57.164;-2.120;2023-06-24T02:16:21;101040.31;;;17.13;100.00
22550;BME280;11441;57.164;-2.120;2023-06-24T02:18:49;101020.78;;;17.02;100.00
22550;BME280;11441;57.164;-2.120;2023-06-24T02:21:17;101020.41;;;17.00;100.00
22550;BME280;11441;57.164;-2.120;2023-06-24T02:23:47;101016.78;;;16.96;100.00
22550;BME280;11441;57.164;-2.120;2023-06-24T02:26:15;101015.22;;;16.99;100.00
22550;BME280;11441;57.164;-2.120;2023-06-24T02:28:44;101014.44;;;16.98;100.00
22550;BME280;11441;57.164;-2.120;2023-06-24T02:31:13;101014.81;;;17.00;100.00
22550;BME280;11441;57.164;-2.120;2023-06-24T02:33:41;101015.22;;;17.02;100.00
22550;BME280;11441;57.164;-2.120;2023-06-24T02:36:10;101019.19;;;16.98;100.00
22550;BME280;11441;57.164;-2.120;2023-06-24T02:38:38;101019.56;;;16.96;100.00
22550;BME280;11441;57.164;-2.120;2023-06-24T02:41:05;101020.41;;;17.00;100.00
22550;BME280;11441;57.164;-2.120;2023-06-24T02:43:32;101008.81;;;16.91;100.00
22550;BME280;11441;57.164;-2.120;2023-06-24T02:46:01;100999.31;;;16.99;100.00
22550;BME280;11441;57.164;-2.120;2023-06-24T02:48:30;101009.63;;;16.95;100.00
22550;BME280;11441;57.164;-2.120;2023-06-24T02:51:00;101019.19;;;16.98;100.00
22550;BME280;11441;57.164;-2.120;2023-06-24T02:53:29;101017.59;;;16.96;100.00
22550;BME280;11441;57.164;-2.120;2023-06-24T02:55:58;101009.25;;;17.00;100.00
22550;BME280;11441;57.164;-2.120;2023-06-24T02:58:26;101006.88;;;17.02;100.00
22550;BME280;11441;57.164;-2.120;2023-06-24T03:01:04;101000.91;;;17.00;100.00
22550;BME280;11441;57.164;-2.120;2023-06-24T03:03:55;100993.38;;;17.04;100.00
22550;BME280;11441;57.164;-2.120;2023-06-24T03:06:23;101002.53;;;17.08;100.00
22550;BME280;11441;57.164;-2.120;2023-06-24T03:08:54;100994.22;;;17.19;100.00
22550;BME280;11441;57.164;-2.120;2023-06-24T03:11:22;100996.94;;;17.05;100.00
22550;BME280;11441;57.164;-2.120;2023-06-24T03:13:49;100998.56;;;17.09;100.00
22550;BME280;11441;57.164;-2.120;2023-06-24T03:16:22;100987.81;;;17.04;100.00
22550;BME280;11441;57.164;-2.120;2023-06-24T03:18:55;100985.81;;;17.01;100.00
22550;BME280;11441;57.164;-2.120;2023-06-24T03:21:22;100994.16;;;17.08;100.00
22550;BME280;11441;57.164;-2.120;2023-06-24T03:24:01;100996.94;;;17.08;100.00
22550;BME280;11441;57.164;-2.120;2023-06-24T03:26:32;100992.97;;;16.99;100.00
22550;BME280;11441;57.164;-2.120;2023-06-24T03:29:00;100995.34;;;17.00;100.00
22550;BME280;11441;57.164;-2.120;2023-06-24T03:31:28;101000.94;;;17.04;100.00
22550;BME280;11441;57.164;-2.120;2023-06-24T03:33:55;100994.94;;;16.98;100.00
22550;BME280;11441;57.164;-2.120;2023-06-24T03:36:24;100995.38;;;17.07;100.00
22550;BME280;11441;57.164;-2.120;2023-06-24T03:38:51;100992.22;;;17.12;100.00
22550;BME280;11441;57.164;-2.120;2023-06-24T03:41:19;100994.59;;;17.10;100.00
22550;BME280;11441;57.164;-2.120;2023-06-24T03:43:48;101000.94;;;17.07;100.00
22550;BME280;11441;57.164;-2.120;2023-06-24T03:46:15;101003.72;;;17.07;100.00
22550;BME280;11441;57.164;-2.120;2023-06-24T03:48:43;100990.59;;;17.11;100.00
22550;BME280;11441;57.164;-2.120;2023-06-24T03:51:11;100989.44;;;17.20;100.00
22550;BME280;11441;57.164;-2.120;2023-06-24T03:53:57;100984.28;;;17.18;100.00
22550;BME280;11441;57.164;-2.120;2023-06-24T03:56:26;100995.00;;;17.12;100.00
22550;BME280;11441;57.164;-2.120;2023-06-24T03:58:53;100990.22;;;17.13;100.00
22550;BME280;11441;57.164;-2.120;2023-06-24T04:01:20;100971.50;;;17.03;100.00
22550;BME280;11441;57.164;-2.120;2023-06-24T04:04:05;100978.66;;;17.04;100.00
22550;BME280;11441;57.164;-2.120;2023-06-24T04:06:32;100979.44;;;16.97;100.00
22550;BME280;11441;57.164;-2.120;2023-06-24T04:08:59;100979.44;;;16.97;100.00
22550;BME280;11441;57.164;-2.120;2023-06-24T04:11:26;100986.56;;;16.94;100.00
22550;BME280;11441;57.164;-2.120;2023-06-24T04:13:53;100988.59;;;17.01;100.00
22550;BME280;11441;57.164;-2.120;2023-06-24T04:16:20;100999.34;;;17.13;100.00
22550;BME280;11441;57.164;-2.120;2023-06-24T04:18:47;101000.16;;;17.14;100.00
22550;BME280;11441;57.164;-2.120;2023-06-24T04:21:14;101002.59;;;17.26;100.00
22550;BME280;11441;57.164;-2.120;2023-06-24T04:23:41;100998.59;;;17.24;100.00
22550;BME280;11441;57.164;-2.120;2023-06-24T04:26:08;101009.31;;;17.22;100.00
22550;BME280;11441;57.164;-2.120;2023-06-24T04:28:35;100987.47;;;17.24;100.00
22550;BME280;11441;57.164;-2.120;2023-06-24T04:31:03;101002.97;;;17.25;100.00
22550;BME280;11441;57.164;-2.120;2023-06-24T04:33:30;101009.34;;;17.29;100.00
22550;BME280;11441;57.164;-2.120;2023-06-24T04:35:57;100998.22;;;17.29;100.00
22550;BME280;11441;57.164;-2.120;2023-06-24T04:38:45;100990.69;;;17.37;100.00
22550;BME280;11441;57.164;-2.120;2023-06-24T04:41:12;100999.81;;;17.30;100.00
22550;BME280;11441;57.164;-2.120;2023-06-24T04:43:39;100999.03;;;17.29;100.00
22550;BME280;11441;57.164;-2.120;2023-06-24T04:46:06;100997.81;;;17.30;100.00
22550;BME280;11441;57.164;-2.120;2023-06-24T04:48:33;100995.81;;;17.31;100.00
22550;BME280;11441;57.164;-2.120;2023-06-24T04:51:00;100996.63;;;17.24;100.00
22550;BME280;11441;57.164;-2.120;2023-06-24T04:53:27;100993.03;;;17.20;100.00
22550;BME280;11441;57.164;-2.120;2023-06-24T04:55:54;100994.19;;;17.12;100.00
22550;BME280;11441;57.164;-2.120;2023-06-24T04:58:21;100995.41;;;17.18;100.00
22550;BME280;11441;57.164;-2.120;2023-06-24T05:00:48;100994.63;;;17.21;100.00
22550;BME280;11441;57.164;-2.120;2023-06-24T05:03:14;101000.97;;;17.25;100.00
22550;BME280;11441;57.164;-2.120;2023-06-24T05:05:41;101001.00;;;17.32;100.00
22550;BME280;11441;57.164;-2.120;2023-06-24T05:08:09;101001.81;;;17.33;100.00
22550;BME280;11441;57.164;-2.120;2023-06-24T05:10:36;100997.44;;;17.39;100.00
22550;BME280;11441;57.164;-2.120;2023-06-24T05:13:03;100990.69;;;17.44;100.00
22550;BME280;11441;57.164;-2.120;2023-06-24T05:15:29;100997.84;;;17.52;100.00
22550;BME280;11441;57.164;-2.120;2023-06-24T05:17:56;101002.22;;;17.49;100.00
22550;BME280;11441;57.164;-2.120;2023-06-24T05:20:23;100996.66;;;17.46;100.00
22550;BME280;11441;57.164;-2.120;2023-06-24T05:22:50;100988.72;;;17.59;100.00
22550;BME280;11441;57.164;-2.120;2023-06-24T05:25:36;100993.88;;;17.64;100.00
22550;BME280;11441;57.164;-2.120;2023-06-24T05:28:03;100993.88;;;17.71;100.00
22550;BME280;11441;57.164;-2.120;2023-06-24T05:30:30;100993.88;;;17.75;100.00
22550;BME280;11441;57.164;-2.120;2023-06-24T05:32:57;100983.56;;;17.82;100.00
22550;BME280;11441;57.164;-2.120;2023-06-24T05:35:24;100986.38;;;17.86;100.00
22550;BME280;11441;57.164;-2.120;2023-06-24T05:37:51;100994.31;;;18.02;100.00
22550;BME280;11441;57.164;-2.120;2023-06-24T05:40:18;100991.53;;;18.09;100.00
22550;BME280;11441;57.164;-2.120;2023-06-24T05:42:45;100988.72;;;18.16;100.00
22550;BME280;11441;57.164;-2.120;2023-06-24T05:45:11;100989.53;;;18.20;100.00
22550;BME280;11441;57.164;-2.120;2023-06-24T05:47:38;100990.31;;;18.28;100.00
22550;BME280;11441;57.164;-2.120;2023-06-24T05:50:06;100979.56;;;18.23;100.00
22550;BME280;11441;57.164;-2.120;2023-06-24T05:52:32;100987.13;;;18.26;100.00
22550;BME280;11441;57.164;-2.120;2023-06-24T05:54:59;100997.88;;;18.27;100.00
22550;BME280;11441;57.164;-2.120;2023-06-24T05:57:26;100999.88;;;18.23;100.00
22550;BME280;11441;57.164;-2.120;2023-06-24T05:59:53;101006.66;;;18.22;100.00
22550;BME280;11441;57.164;-2.120;2023-06-24T06:02:20;101004.25;;;18.21;100.00
22550;BME280;11441;57.164;-2.120;2023-06-24T06:04:47;100996.69;;;18.18;100.00
22550;BME280;11441;57.164;-2.120;2023-06-24T06:07:14;101012.63;;;18.17;100.00
22550;BME280;11441;57.164;-2.120;2023-06-24T06:09:41;101005.88;;;18.22;100.00
22550;BME280;11441;57.164;-2.120;2023-06-24T06:12:26;101013.00;;;18.23;100.00
22550;BME280;11441;57.164;-2.120;2023-06-24T06:14:53;101001.84;;;18.34;100.00
22550;BME280;11441;57.164;-2.120;2023-06-24T06:17:19;101001.44;;;18.39;100.00
22550;BME280;11441;57.164;-2.120;2023-06-24T06:19:46;101009.78;;;18.42;100.00
22550;BME280;11441;57.164;-2.120;2023-06-24T06:22:17;101005.81;;;18.43;100.00
22550;BME280;11441;57.164;-2.120;2023-06-24T06:24:44;101013.38;;;18.50;100.00
22550;BME280;11441;57.164;-2.120;2023-06-24T06:27:29;101011.34;;;18.58;100.00
22550;BME280;11441;57.164;-2.120;2023-06-24T06:29:56;101010.53;;;18.68;100.00
22550;BME280;11441;57.164;-2.120;2023-06-24T06:32:22;100999.34;;;18.72;100.00
22550;BME280;11441;57.164;-2.120;2023-06-24T06:34:49;100995.34;;;18.80;100.00
22550;BME280;11441;57.164;-2.120;2023-06-24T06:37:16;101000.94;;;18.80;100.00
22550;BME280;11441;57.164;-2.120;2023-06-24T06:39:43;101000.53;;;18.89;100.00
22550;BME280;11441;57.164;-2.120;2023-06-24T06:42:10;101004.53;;;18.84;100.00
22550;BME280;11441;57.164;-2.120;2023-06-24T06:44:37;100997.75;;;18.85;100.00
22550;BME280;11441;57.164;-2.120;2023-06-24T06:47:04;101000.13;;;18.90;100.00
22550;BME280;11441;57.164;-2.120;2023-06-24T06:49:31;101000.84;;;19.01;100.00
22550;BME280;11441;57.164;-2.120;2023-06-24T06:51:58;101003.28;;;18.96;100.00
22550;BME280;11441;57.164;-2.120;2023-06-24T06:54:43;101002.03;;;19.11;100.00
22550;BME280;11441;57.164;-2.120;2023-06-24T06:57:10;101004.03;;;19.11;100.00
22550;BME280;11441;57.164;-2.120;2023-06-24T06:59:37;101012.78;;;19.13;100.00
22550;BME280;11441;57.164;-2.120;2023-06-24T07:02:05;101020.72;;;19.18;100.00
22550;BME280;11441;57.164;-2.120;2023-06-24T07:04:32;101017.97;;;19.14;100.00
22550;BME280;11441;57.164;-2.120;2023-06-24T07:06:59;101010.78;;;19.13;100.00
22550;BME280;11441;57.164;-2.120;2023-06-24T07:09:26;101020.72;;;19.21;100.00
22550;BME280;11441;57.164;-2.120;2023-06-24T07:11:53;101020.63;;;19.36;100.00
22550;BME280;11441;57.164;-2.120;2023-06-24T07:14:20;101022.19;;;19.44;100.00
22550;BME280;11441;57.164;-2.120;2023-06-24T07:16:47;101024.16;;;19.47;100.00
22550;BME280;11441;57.164;-2.120;2023-06-24T07:19:14;101017.34;;;19.48;100.00
22550;BME280;11441;57.164;-2.120;2023-06-24T07:21:40;101023.28;;;19.61;100.00
22550;BME280;11441;57.164;-2.120;2023-06-24T07:24:07;101018.81;;;19.67;100.00
22550;BME280;11441;57.164;-2.120;2023-06-24T07:26:34;101021.28;;;19.58;100.00
22550;BME280;11441;57.164;-2.120;2023-06-24T07:29:01;101016.41;;;19.69;100.00
22550;BME280;11441;57.164;-2.120;2023-06-24T07:31:35;101011.56;;;19.84;100.00
22550;BME280;11441;57.164;-2.120;2023-06-24T07:34:04;101021.19;;;19.76;100.00
22550;BME280;11441;57.164;-2.120;2023-06-24T07:36:31;101025.81;;;19.97;100.00
22550;BME280;11441;57.164;-2.120;2023-06-24T07:38:58;101030.66;;;19.93;100.00
22550;BME280;11441;57.164;-2.120;2023-06-24T07:41:44;101033.38;;;20.00;100.00
22550;BME280;11441;57.164;-2.120;2023-06-24T07:44:11;101038.91;;;20.07;100.00
22550;BME280;11441;57.164;-2.120;2023-06-24T07:46:38;101041.66;;;20.11;100.00
22550;BME280;11441;57.164;-2.120;2023-06-24T07:49:04;101038.47;;;20.12;100.00
22550;BME280;11441;57.164;-2.120;2023-06-24T07:51:31;101045.19;;;20.22;100.00
22550;BME280;11441;57.164;-2.120;2023-06-24T07:53:58;101041.50;;;20.29;100.00
22550;BME280;11441;57.164;-2.120;2023-06-24T07:56:25;101039.94;;;20.28;100.00
22550;BME280;11441;57.164;-2.120;2023-06-24T07:58:52;101033.88;;;20.33;100.00
22550;BME280;11441;57.164;-2.120;2023-06-24T08:01:19;101042.28;;;20.33;100.00
22550;BME280;11441;57.164;-2.120;2023-06-24T08:03:46;101041.75;;;20.45;100.00
22550;BME280;11441;57.164;-2.120;2023-06-24T08:06:13;101044.94;;;20.47;100.00
22550;BME280;11441;57.164;-2.120;2023-06-24T08:08:40;101041.22;;;20.58;100.00
22550;BME280;11441;57.164;-2.120;2023-06-24T08:11:07;101043.19;;;20.61;100.00
22550;BME280;11441;57.164;-2.120;2023-06-24T08:13:52;101037.75;;;20.84;100.00
22550;BME280;11441;57.164;-2.120;2023-06-24T08:16:37;101038.22;;;20.79;100.00
22550;BME280;11441;57.164;-2.120;2023-06-24T08:19:03;101040.28;;;20.75;100.00
22550;BME280;11441;57.164;-2.120;2023-06-24T08:22:07;101044.53;;;20.87;100.00
22550;BME280;11441;57.164;-2.120;2023-06-24T08:24:36;101044.06;;;20.92;100.00
22550;BME280;11441;57.164;-2.120;2023-06-24T08:27:03;101038.09;;;20.90;100.00
22550;BME280;11441;57.164;-2.120;2023-06-24T08:29:30;101051.34;;;20.86;100.00
22550;BME280;11441;57.164;-2.120;2023-06-24T08:31:57;101048.50;;;20.89;100.00
22550;BME280;11441;57.164;-2.120;2023-06-24T08:34:24;101051.63;;;20.95;100.00
22550;BME280;11441;57.164;-2.120;2023-06-24T08:36:52;101048.22;;;20.80;100.00
22550;BME280;11441;57.164;-2.120;2023-06-24T08:39:19;101058.25;;;20.74;100.00
22550;BME280;11441;57.164;-2.120;2023-06-24T08:41:46;101054.38;;;20.64;100.00
22550;BME280;11441;57.164;-2.120;2023-06-24T08:44:13;101053.13;;;20.69;100.00
22550;BME280;11441;57.164;-2.120;2023-06-24T08:46:40;101053.47;;;20.75;100.00
22550;BME280;11441;57.164;-2.120;2023-06-24T08:49:27;101059.16;;;20.60;100.00
22550;BME280;11441;57.164;-2.120;2023-06-24T08:52:02;101052.38;;;20.61;100.00
22550;BME280;11441;57.164;-2.120;2023-06-24T08:54:31;101048.41;;;20.62;100.00
22550;BME280;11441;57.164;-2.120;2023-06-24T08:57:01;101053.19;;;20.62;100.00
22550;BME280;11441;57.164;-2.120;2023-06-24T08:59:47;101055.59;;;20.63;100.00
22550;BME280;11441;57.164;-2.120;2023-06-24T09:02:14;101054.38;;;20.64;100.00
22550;BME280;11441;57.164;-2.120;2023-06-24T09:04:41;101064.16;;;20.83;100.00
22550;BME280;11441;57.164;-2.120;2023-06-24T09:07:08;101065.28;;;20.89;100.00
22550;BME280;11441;57.164;-2.120;2023-06-24T09:09:43;101062.25;;;21.11;100.00
22550;BME280;11441;57.164;-2.120;2023-06-24T09:12:14;101054.84;;;21.24;100.00
22550;BME280;11441;57.164;-2.120;2023-06-24T09:14:47;101061.84;;;21.40;100.00
22550;BME280;11441;57.164;-2.120;2023-06-24T09:17:15;101068.03;;;21.58;100.00
22550;BME280;11441;57.164;-2.120;2023-06-24T09:19:42;101067.94;;;21.65;100.00
22550;BME280;11441;57.164;-2.120;2023-06-24T09:22:10;101070.09;;;21.54;100.00
22550;BME280;11441;57.164;-2.120;2023-06-24T09:24:55;101073.53;;;21.65;100.00
22550;BME280;11441;57.164;-2.120;2023-06-24T09:27:22;101071.69;;;21.82;100.00
22550;BME280;11441;57.164;-2.120;2023-06-24T09:29:50;101069.72;;;21.79;100.00
22550;BME280;11441;57.164;-2.120;2023-06-24T09:32:36;101069.81;;;21.99;100.00
22550;BME280;11441;57.164;-2.120;2023-06-24T09:35:03;101070.28;;;21.94;100.00
22550;BME280;11441;57.164;-2.120;2023-06-24T09:37:32;101078.56;;;22.05;100.00
22550;BME280;11441;57.164;-2.120;2023-06-24T09:40:19;101073.13;;;22.18;100.00
22550;BME280;11441;57.164;-2.120;2023-06-24T09:42:54;101079.44;;;21.98;100.00
22550;BME280;11441;57.164;-2.120;2023-06-24T09:45:40;101078.31;;;22.19;100.00
22550;BME280;11441;57.164;-2.120;2023-06-24T09:48:08;101065.38;;;22.49;100.00
22550;BME280;11441;57.164;-2.120;2023-06-24T09:50:35;101075.69;;;22.56;100.00
22550;BME280;11441;57.164;-2.120;2023-06-24T09:53:02;101073.38;;;22.51;100.00
22550;BME280;11441;57.164;-2.120;2023-06-24T09:55:30;101068.41;;;22.58;100.00
22550;BME280;11441;57.164;-2.120;2023-06-24T09:57:58;101072.75;;;22.63;100.00
22550;BME280;11441;57.164;-2.120;2023-06-24T10:00:25;101076.78;;;22.62;100.00
22550;BME280;11441;57.164;-2.120;2023-06-24T10:03:12;101070.75;;;22.84;100.00
22550;BME280;11441;57.164;-2.120;2023-06-24T10:05:40;101087.47;;;22.91;100.00
22550;BME280;11441;57.164;-2.120;2023-06-24T10:08:08;101076.88;;;22.78;100.00
22550;BME280;11441;57.164;-2.120;2023-06-24T10:10:35;101078.38;;;22.83;100.00
22550;BME280;11441;57.164;-2.120;2023-06-24T10:13:03;101078.19;;;22.94;100.00
22550;BME280;11441;57.164;-2.120;2023-06-24T10:15:29;101078.19;;;23.14;100.00
22550;BME280;11441;57.164;-2.120;2023-06-24T10:18:01;101086.91;;;23.20;100.00
22550;BME280;11441;57.164;-2.120;2023-06-24T10:20:36;101087.59;;;23.04;100.00
22550;BME280;11441;57.164;-2.120;2023-06-24T10:23:07;101085.06;;;23.13;100.00
22550;BME280;11441;57.164;-2.120;2023-06-24T10:25:37;101090.72;;;23.29;100.00
22550;BME280;11441;57.164;-2.120;2023-06-24T10:28:04;101081.88;;;23.31;100.00
22550;BME280;11441;57.164;-2.120;2023-06-24T10:30:31;101064.94;;;23.51;100.00
22550;BME280;11441;57.164;-2.120;2023-06-24T10:33:00;101067.06;;;23.63;100.00
22550;BME280;11441;57.164;-2.120;2023-06-24T10:35:28;101075.97;;;23.62;100.00
22550;BME280;11441;57.164;-2.120;2023-06-24T10:38:00;101075.75;;;23.52;100.00
22550;BME280;11441;57.164;-2.120;2023-06-24T10:40:52;101081.06;;;23.67;100.00
22550;BME280;11441;57.164;-2.120;2023-06-24T10:45:58;101088.63;;;23.70;100.00
22550;BME280;11441;57.164;-2.120;2023-06-24T10:48:28;101088.09;;;23.75;100.00
22550;BME280;11441;57.164;-2.120;2023-06-24T10:50:55;101090.03;;;23.78;100.00
22550;BME280;11441;57.164;-2.120;2023-06-24T10:53:22;101083.88;;;23.67;100.00
22550;BME280;11441;57.164;-2.120;2023-06-24T10:55:49;101087.41;;;23.71;100.00
22550;BME280;11441;57.164;-2.120;2023-06-24T10:58:16;101093.88;;;23.51;100.00
22550;BME280;11441;57.164;-2.120;2023-06-24T11:00:43;101086.22;;;23.88;100.00
22550;BME280;11441;57.164;-2.120;2023-06-24T11:03:16;101082.34;;;24.15;100.00
22550;BME280;11441;57.164;-2.120;2023-06-24T11:05:45;101080.75;;;23.98;100.00
22550;BME280;11441;57.164;-2.120;2023-06-24T11:08:12;101082.72;;;24.01;100.00
22550;BME280;11441;57.164;-2.120;2023-06-24T11:10:46;101090.06;;;23.95;100.00
22550;BME280;11441;57.164;-2.120;2023-06-24T11:13:14;101096.19;;;23.73;100.00
22550;BME280;11441;57.164;-2.120;2023-06-24T11:15:59;101080.69;;;23.85;100.00
22550;BME280;11441;57.164;-2.120;2023-06-24T11:18:37;101079.34;;;24.22;100.00
22550;BME280;11441;57.164;-2.120;2023-06-24T11:21:08;101094.47;;;24.28;100.00
22550;BME280;11441;57.164;-2.120;2023-06-24T11:23:36;101089.03;;;24.21;100.00
22550;BME280;11441;57.164;-2.120;2023-06-24T11:26:03;101084.44;;;24.44;100.00
22550;BME280;11441;57.164;-2.120;2023-06-24T11:28:31;101086.19;;;24.38;100.00
22550;BME280;11441;57.164;-2.120;2023-06-24T11:31:09;101084.91;;;24.09;100.00
22550;BME280;11441;57.164;-2.120;2023-06-24T11:33:37;101085.88;;;24.19;100.00
22550;BME280;11441;57.164;-2.120;2023-06-24T11:36:09;101088.16;;;24.08;100.00
22550;BME280;11441;57.164;-2.120;2023-06-24T11:38:36;101095.25;;;24.45;100.00
22550;BME280;11441;57.164;-2.120;2023-06-24T11:41:03;101091.91;;;24.51;100.00
22550;BME280;11441;57.164;-2.120;2023-06-24T11:43:30;101111.03;;;24.59;100.00
22550;BME280;11441;57.164;-2.120;2023-06-24T11:45:57;101111.88;;;24.40;100.00
22550;BME280;11441;57.164;-2.120;2023-06-24T11:48:30;101118.06;;;24.18;100.00
22550;BME280;11441;57.164;-2.120;2023-06-24T11:50:58;101102.13;;;24.12;100.00
22550;BME280;11441;57.164;-2.120;2023-06-24T11:53:44;101109.53;;;24.05;100.00
22550;BME280;11441;57.164;-2.120;2023-06-24T11:56:12;101113.09;;;23.89;100.00
22550;BME280;11441;57.164;-2.120;2023-06-24T11:58:39;101104.44;;;24.00;100.00
22550;BME280;11441;57.164;-2.120;2023-06-24T12:01:06;101096.69;;;24.04;100.00
22550;BME280;11441;57.164;-2.120;2023-06-24T12:03:34;101113.38;;;23.95;100.00
22550;BME280;11441;57.164;-2.120;2023-06-24T12:06:01;101103.97;;;24.18;100.00
22550;BME280;11441;57.164;-2.120;2023-06-24T12:08:28;101111.63;;;24.18;100.00
22550;BME280;11441;57.164;-2.120;2023-06-24T12:11:15;101105.56;;;24.36;100.00
22550;BME280;11441;57.164;-2.120;2023-06-24T12:13:42;101115.22;;;24.35;100.00
22550;BME280;11441;57.164;-2.120;2023-06-24T12:16:09;101121.03;;;24.11;100.00
22550;BME280;11441;57.164;-2.120;2023-06-24T12:18:36;101121.38;;;24.29;100.00
22550;BME280;11441;57.164;-2.120;2023-06-24T12:21:03;101126.38;;;24.38;100.00
22550;BME280;11441;57.164;-2.120;2023-06-24T12:23:30;101120.75;;;24.38;100.00
22550;BME280;11441;57.164;-2.120;2023-06-24T12:25:57;101117.88;;;24.25;100.00
22550;BME280;11441;57.164;-2.120;2023-06-24T12:28:24;101120.22;;;24.43;100.00
22550;BME280;11441;57.164;-2.120;2023-06-24T12:30:50;101119.03;;;24.28;100.00
22550;BME280;11441;57.164;-2.120;2023-06-24T12:33:18;101125.78;;;24.47;100.00
22550;BME280;11441;57.164;-2.120;2023-06-24T12:35:46;101116.81;;;24.36;100.00
22550;BME280;11441;57.164;-2.120;2023-06-24T12:38:13;101120.34;;;24.56;100.00
22550;BME280;11441;57.164;-2.120;2023-06-24T12:40:40;101116.91;;;24.65;100.00
22550;BME280;11441;57.164;-2.120;2023-06-24T12:43:07;101116.00;;;24.19;100.00
22550;BME280;11441;57.164;-2.120;2023-06-24T12:45:34;101114.88;;;24.33;100.00
22550;BME280;11441;57.164;-2.120;2023-06-24T12:48:00;101124.03;;;24.37;100.00
22550;BME280;11441;57.164;-2.120;2023-06-24T12:50:28;101121.19;;;24.53;100.00
22550;BME280;11441;57.164;-2.120;2023-06-24T12:52:55;101116.28;;;24.41;100.00
22550;BME280;11441;57.164;-2.120;2023-06-24T12:55:21;101113.13;;;24.22;100.00